EGHI/SOU METAR and TAF weather

Enter ICAO airport designator
Station Type Date Time Source
EGHI METAR 2018/12/13 20:20 UTC NOAA

EGHI 132020Z 08005KT 030V130 CAVOK 01/M03 Q1018


Station Type Date Time Source
EGHI Decoded METAR 2018/12/13 20:20 UTC NOAA

Southampton / Weather Centre, United Kingdom (EGHI) 50-54N 001-24W 0M
Dec 13, 2018 - 03:20 PM EST / 2018.12.13 2020 UTC
Wind: from the E (080 degrees) at 6 MPH (5 KT) (direction variable):0
Visibility: greater than 7 mile(s):0
Temperature: 33 F (1 C)
Windchill: 26 F (-3 C):1
Dew Point: 26 F (-3 C)
Relative Humidity: 74%
Pressure (altimeter): 30.06 in. Hg (1018 hPa)
ob: EGHI 132020Z 08005KT 030V130 CAVOK 01/M03 Q1018
cycle: 20

Station Type Date Time Source
EGHI TAF 2016/03/02 12:00 UTC NOAA

TAF EGHI 021104Z 0212/0221 28015G25KT 9999 SCT020
TEMPO 0212/0221 29020G35KT PROB30
TEMPO 0212/0213 4000 SHRA BKN012CB
TEMPO 0218/0221 BKN014


Example: see airport list